createdAt,value
2023-08-15T00:04:02.685Z,13.45
2023-08-15T00:09:06.655Z,11.43
2023-08-15T00:14:11.096Z,8.43
2023-08-15T00:19:16.597Z,9.07
2023-08-15T00:24:20.522Z,8.43
2023-08-15T00:29:24.269Z,10.50
2023-08-15T00:34:29.340Z,9.95
2023-08-15T00:39:32.994Z,9.07
2023-08-15T00:44:42.171Z,8.00
2023-08-15T00:49:49.008Z,8.13
2023-08-15T00:54:53.710Z,10.57
2023-08-15T00:59:57.634Z,8.00
2023-08-15T01:05:02.746Z,7.47
2023-08-15T01:10:07.817Z,8.07
2023-08-15T01:15:17.950Z,8.02
2023-08-15T01:20:28.400Z,10.45
2023-08-15T01:25:35.561Z,12.10
2023-08-15T01:30:39.656Z,12.13
2023-08-15T01:35:47.972Z,10.30
2023-08-15T01:40:57.836Z,12.23
2023-08-15T01:46:02.547Z,11.77
2023-08-15T01:51:06.299Z,8.23
2023-08-15T01:56:11.441Z,13.50
2023-08-15T02:01:15.538Z,9.63
2023-08-15T02:06:19.181Z,10.90
2023-08-15T02:11:24.439Z,10.00
2023-08-15T02:16:28.064Z,8.35
2023-08-15T02:21:31.821Z,11.82
2023-08-15T02:26:37.253Z,9.25
2023-08-15T02:31:45.817Z,9.90
2023-08-15T02:36:49.835Z,9.48
2023-08-15T02:41:54.937Z,7.93
2023-08-15T02:46:58.701Z,7.55
2023-08-15T02:52:02.396Z,10.45
2023-08-15T02:57:07.596Z,8.20
2023-08-15T03:08:03.071Z,9.88
2023-08-15T03:13:08.142Z,9.02
2023-08-15T03:18:11.793Z,8.27
2023-08-15T03:23:15.501Z,6.32
2023-08-15T03:28:20.505Z,9.93
2023-08-15T03:33:25.598Z,8.10
2023-08-15T03:38:29.560Z,5.90
2023-08-15T03:43:37.080Z,6.32
2023-08-15T03:48:42.387Z,6.00
2023-08-15T03:53:46.089Z,8.98
2023-08-15T03:58:51.344Z,5.95
2023-08-15T04:03:55.055Z,5.43
2023-08-15T04:08:58.790Z,9.32
2023-08-15T04:14:03.840Z,11.13
2023-08-15T04:19:07.540Z,6.90
2023-08-15T04:24:12.245Z,6.70
2023-08-15T04:29:17.463Z,6.97
2023-08-15T04:34:21.217Z,7.45
2023-08-15T04:39:28.263Z,7.43
2023-08-15T04:44:33.330Z,9.95
2023-08-15T04:49:37.038Z,13.75
2023-08-15T04:54:40.786Z,8.82
2023-08-15T04:59:47.286Z,7.78
2023-08-15T05:04:51.059Z,8.32
2023-08-15T05:09:54.763Z,7.80
2023-08-15T05:15:00.094Z,9.50
2023-08-15T05:20:04.749Z,6.18
2023-08-15T05:25:09.884Z,6.28
2023-08-15T05:30:21.492Z,9.95
2023-08-15T05:35:25.169Z,6.90
2023-08-15T05:40:29.246Z,6.75
2023-08-15T05:45:34.515Z,7.45
2023-08-15T05:50:38.202Z,7.10
2023-08-15T05:55:43.731Z,8.85
2023-08-15T06:00:49.296Z,8.95
2023-08-15T06:05:53.064Z,6.40
2023-08-15T06:10:56.667Z,14.77
2023-08-15T06:16:01.716Z,5.90
2023-08-15T06:21:05.480Z,4.57
2023-08-15T06:26:09.182Z,6.35
2023-08-15T06:31:14.270Z,8.07
2023-08-15T06:36:17.950Z,4.40
2023-08-15T06:41:21.729Z,4.90
2023-08-15T06:46:28.723Z,5.88
2023-08-15T06:51:32.486Z,5.70
2023-08-15T06:56:36.066Z,5.68
2023-08-15T07:01:41.043Z,4.07
2023-08-15T07:06:44.713Z,7.40
2023-08-15T07:11:48.445Z,7.00
2023-08-15T07:16:53.556Z,4.97
2023-08-15T07:21:57.265Z,4.72
2023-08-15T07:27:01.005Z,5.97
2023-08-15T07:32:07.653Z,6.68
2023-08-15T07:37:12.420Z,5.32
2023-08-15T07:42:16.109Z,4.72
2023-08-15T07:47:21.640Z,4.55
2023-08-15T07:52:25.725Z,3.92
2023-08-15T07:57:29.535Z,4.38
2023-08-15T08:02:34.764Z,8.35
2023-08-15T08:07:39.851Z,5.05
2023-08-15T08:12:43.679Z,4.78
2023-08-15T08:17:48.841Z,7.07
2023-08-15T08:22:52.511Z,4.65
2023-08-15T08:27:56.476Z,5.82
2023-08-15T08:33:01.737Z,3.20
2023-08-15T08:38:06.088Z,4.43
2023-08-15T08:43:11.088Z,3.13
2023-08-15T08:48:18.688Z,3.83
2023-08-15T08:53:22.609Z,5.05
2023-08-15T08:58:28.236Z,8.23
2023-08-15T09:03:34.039Z,5.30
2023-08-15T09:08:37.746Z,3.40
2023-08-15T09:13:48.565Z,3.38
2023-08-15T09:18:53.651Z,3.30
2023-08-15T09:24:00.528Z,3.20
2023-08-15T09:29:04.642Z,3.10
2023-08-15T09:34:12.432Z,8.25
2023-08-15T09:39:16.489Z,2.77
2023-08-15T09:44:31.738Z,5.18
2023-08-15T09:49:37.169Z,3.22
2023-08-15T09:54:42.697Z,4.40
2023-08-15T09:59:46.430Z,3.63
2023-08-15T10:04:59.196Z,5.18
2023-08-15T10:10:05.332Z,6.05
2023-08-15T10:15:12.052Z,2.45
2023-08-15T10:20:20.554Z,7.68
2023-08-15T10:25:38.461Z,4.38
2023-08-15T10:30:51.593Z,3.33
2023-08-15T10:36:10.457Z,3.75
2023-08-15T10:41:16.151Z,4.65
2023-08-15T10:46:21.277Z,5.97
2023-08-15T10:51:27.814Z,3.60
2023-08-15T10:56:33.171Z,5.55
2023-08-15T11:01:38.774Z,2.08
2023-08-15T11:06:46.931Z,2.42
2023-08-15T11:11:50.798Z,5.83
2023-08-15T11:16:54.550Z,2.33
2023-08-15T11:22:00.058Z,7.45
2023-08-15T11:27:03.930Z,2.47
2023-08-15T11:32:10.153Z,2.78
2023-08-15T11:37:16.009Z,4.13
2023-08-15T11:42:20.351Z,3.38
2023-08-15T11:47:24.420Z,1.75
2023-08-15T11:52:30.536Z,1.92
2023-08-15T11:57:37.408Z,2.92
2023-08-15T12:02:44.999Z,2.28
2023-08-15T12:07:51.321Z,6.05
2023-08-15T12:12:54.982Z,3.90
2023-08-15T12:17:58.768Z,2.90
2023-08-15T12:23:07.423Z,3.22
2023-08-15T12:33:20.872Z,2.65
2023-08-15T12:38:36.471Z,2.75
2023-08-15T12:43:40.265Z,2.92
2023-08-15T12:48:44.007Z,4.55
2023-08-15T12:53:49.097Z,6.93
2023-08-15T12:58:52.889Z,3.55
2023-08-15T13:03:56.844Z,2.40
2023-08-15T13:09:01.984Z,6.32
2023-08-15T13:14:06.364Z,4.07
2023-08-15T13:19:10.245Z,3.67
2023-08-15T13:24:15.339Z,4.25
2023-08-15T13:29:19.358Z,4.35
2023-08-15T13:34:23.971Z,2.78
2023-08-15T13:39:29.292Z,5.88
2023-08-15T13:44:33.031Z,2.38
2023-08-15T13:49:36.673Z,5.05
2023-08-15T13:54:41.718Z,2.25
2023-08-15T13:59:46.213Z,4.28
2023-08-15T14:04:50.002Z,2.30
2023-08-15T14:09:56.693Z,2.10
2023-08-15T14:15:00.664Z,2.30
2023-08-15T14:20:05.017Z,3.13
2023-08-15T14:25:11.120Z,6.20
2023-08-15T14:30:15.446Z,2.92
2023-08-15T14:35:20.375Z,2.33
2023-08-15T14:40:25.460Z,1.90
2023-08-15T14:45:29.324Z,2.92
2023-08-15T14:50:32.975Z,2.92
2023-08-15T14:55:38.136Z,3.45
2023-08-15T15:00:41.913Z,3.55
2023-08-15T15:05:46.046Z,2.80
2023-08-15T15:10:54.323Z,2.40
2023-08-15T15:21:02.365Z,4.40
2023-08-15T15:26:07.715Z,3.63
2023-08-15T15:31:11.650Z,8.85
2023-08-15T15:36:16.025Z,5.07
2023-08-15T15:41:21.131Z,3.38
2023-08-15T15:46:25.114Z,4.65
2023-08-15T15:51:29.129Z,3.03
2023-08-15T15:56:34.250Z,3.25
2023-08-15T16:01:38.286Z,3.55
2023-08-15T16:06:42.393Z,4.40
2023-08-15T16:11:47.755Z,4.70
2023-08-15T16:16:51.463Z,3.97
2023-08-15T16:21:55.143Z,4.05
2023-08-15T16:27:00.188Z,2.80
2023-08-15T16:32:04.217Z,3.60
2023-08-15T16:37:07.909Z,4.82
2023-08-15T16:42:12.964Z,3.70
2023-08-15T16:47:16.686Z,3.67
2023-08-15T16:52:20.627Z,6.55
2023-08-15T16:57:26.026Z,4.50
2023-08-15T17:02:29.909Z,4.38
2023-08-15T17:07:34.773Z,6.20
2023-08-15T17:12:40.458Z,5.97
2023-08-15T17:17:44.303Z,4.90
2023-08-15T17:22:47.976Z,3.58
2023-08-15T17:27:53.596Z,3.45
2023-08-15T17:32:57.261Z,5.22
2023-08-15T17:38:00.994Z,3.83
2023-08-15T17:43:06.528Z,10.15
2023-08-15T17:48:11.811Z,3.88
2023-08-15T17:53:15.650Z,9.60
2023-08-15T17:58:20.722Z,3.80
2023-08-15T18:03:24.550Z,5.20
2023-08-15T18:08:28.439Z,4.65
2023-08-15T18:13:33.427Z,4.10
2023-08-15T18:18:37.201Z,6.55
2023-08-15T18:23:40.830Z,5.18
2023-08-15T18:28:46.147Z,4.38
2023-08-15T18:33:49.839Z,6.63
2023-08-15T18:38:53.552Z,9.27
2023-08-15T18:43:58.542Z,5.15
2023-08-15T18:49:02.171Z,7.00
2023-08-15T18:54:06.087Z,6.25
2023-08-15T18:59:11.142Z,5.88
2023-08-15T19:04:14.801Z,6.10
2023-08-15T19:09:18.453Z,5.47
2023-08-15T19:14:23.730Z,6.30
2023-08-15T19:19:27.494Z,6.57
2023-08-15T19:24:31.220Z,6.22
2023-08-15T19:29:36.503Z,7.15
2023-08-15T19:34:46.793Z,5.55
2023-08-15T19:39:50.566Z,6.30
2023-08-15T19:44:55.535Z,5.93
2023-08-15T19:49:59.217Z,5.78
2023-08-15T19:55:04.302Z,5.88
2023-08-15T20:00:11.780Z,5.53
2023-08-15T20:05:15.695Z,6.03
2023-08-15T20:10:19.602Z,6.60
2023-08-15T20:15:24.729Z,7.38
2023-08-15T20:20:28.419Z,8.32
2023-08-15T20:25:32.105Z,5.75
2023-08-15T20:30:37.430Z,8.35
2023-08-15T20:35:41.158Z,9.52
2023-08-15T20:40:46.918Z,6.45
2023-08-15T20:45:53.970Z,6.85
2023-08-15T20:50:57.647Z,5.85
2023-08-15T20:56:01.240Z,5.45
2023-08-15T21:01:06.364Z,5.05
2023-08-15T21:06:10.171Z,10.57
2023-08-15T21:11:13.814Z,9.30
2023-08-15T21:16:19.160Z,11.23
2023-08-15T21:21:22.938Z,11.35
2023-08-15T21:26:27.767Z,14.13
2023-08-15T21:31:33.462Z,13.80
2023-08-15T21:36:37.227Z,19.85
2023-08-15T21:41:40.859Z,15.23
2023-08-15T21:46:46.074Z,59.28
2023-08-15T21:51:49.806Z,24.88
2023-08-15T21:56:53.529Z,11.73
2023-08-15T22:01:58.739Z,11.55
2023-08-15T22:07:02.677Z,13.05
2023-08-15T22:12:06.950Z,11.32
2023-08-15T22:17:12.050Z,13.85
2023-08-15T22:22:15.691Z,11.50
2023-08-15T22:27:19.374Z,15.98
2023-08-15T22:32:24.510Z,11.48
2023-08-15T22:37:29.431Z,13.48
2023-08-15T22:42:33.375Z,12.38
2023-08-15T22:47:38.754Z,11.75
2023-08-15T22:52:42.597Z,13.90
2023-08-15T22:57:46.317Z,10.93
2023-08-15T23:02:51.312Z,13.88
2023-08-15T23:07:55.136Z,15.20
2023-08-15T23:12:58.795Z,9.35
2023-08-15T23:18:03.944Z,9.27
2023-08-15T23:23:08.403Z,8.52
2023-08-15T23:28:12.190Z,9.68
2023-08-15T23:33:17.284Z,10.80
2023-08-15T23:38:21.822Z,14.57
2023-08-15T23:43:25.516Z,11.77
2023-08-15T23:48:30.639Z,9.45
2023-08-15T23:53:34.313Z,11.52
2023-08-15T23:58:37.976Z,12.38
